• Join FlightAware (Why Join?)
  • Login
  • US Flag 
11:20PM EDT


 

Airport Tracker/Info


-or-


 

Live Flight TrackerFlight Track Log ✈ EJA951 ✈ 23-May-2013 ✈ KHPN - KMCO

Flight Track Log - Related Links

Times and Time Zones

All times are in EDT time to prevent confusion due to time zone crossing. See the EJA951 flight status page for this flight to view local times or setup timezone preferences in your user account.

Time Position Orientation Groundspeed Altitude Reporting Facility
EDT Latitude Longitude Course Direction KTS MPH feet Rate Location/Type
06:46AM 41.0833 -73.7833 201° Southwest 202 232 4,900  Level New York TRACON
06:47AM 41.0333 -73.8333 217° Southwest 246 283 9,300 3,600 Climbing New York TRACON
06:48AM 40.9667 -73.8833 210° Southwest 289 333 11,800 1,380 Climbing New York TRACON
06:49AM 40.9000 -73.9667 223° Southwest 365 420 12,000 60 Climbing New York TRACON
06:50AM 40.8000 -74.0500 212° Southwest 374 430 12,000  Level New York TRACON
06:52AM 40.3408 -74.0630 201° Southwest  Level FlightAware Approximate
06:53AM 40.5783 -74.1347 196° South 394 453 12,100  Level New York Center
06:54AM 40.4839 -74.1572 190° South 373 429 15,200 2,520 Climbing New York Center
06:55AM 40.3792 -74.1794 189° South 353 406 17,200 1,800 Climbing New York Center
06:56AM 40.2911 -74.1967 188° South 358 412 18,900 1,680 Climbing New York Center
06:57AM 40.1917 -74.2489 202° Southwest 351 404 20,600 1,740 Climbing New York Center
06:58AM 40.1100 -74.3317 218° Southwest 357 411 22,400 1,080 Climbing New York Center
07:00AM 39.9192 -74.5175 217° Southwest 405 466 24,200 1,020 Climbing Washington Center
07:01AM 39.8242 -74.6081 216° Southwest 416 479 25,800 1,920 Climbing Washington Center
07:02AM 39.7433 -74.6847 216° Southwest 416 479 28,100 2,040 Climbing Washington Center
07:03AM 39.6564 -74.7694 217° Southwest 409 471 30,000 1,740 Climbing Washington Center
07:04AM 39.5694 -74.8539 217° Southwest 404 465 31,600 1,920 Climbing Washington Center
07:05AM 39.4847 -74.9356 217° Southwest 399 459 33,800 2,040 Climbing Washington Center
07:06AM 39.3997 -75.0194 217° Southwest 399 459 35,800 1,800 Climbing Washington Center
07:07AM 39.3144 -75.0981 216° Southwest 393 452 37,500 1,500 Climbing Washington Center
07:08AM 39.2125 -75.1494 201° Southwest 388 447 38,900 1,200 Climbing Washington Center
07:09AM 39.1086 -75.1903 197° South 393 452 39,900 960 Climbing Washington Center
07:10AM 38.9981 -75.2392 199° South 406 467 40,900 840 Climbing Washington Center
07:11AM 38.8878 -75.2875 199° South 416 479 41,600 660 Climbing Washington Center
07:12AM 38.7733 -75.3361 198° South 427 491 42,300 660 Climbing Washington Center
07:13AM 38.6589 -75.3844 198° South 432 497 43,000 300 Climbing Washington Center
07:14AM 38.5400 -75.4350 198° South 443 510 43,000  Level Washington Center
07:15AM 38.4192 -75.4806 196° South 453 521 43,000  Level Washington Center
07:16AM 38.2919 -75.5572 205° Southwest 468 539 43,000  Level Washington Center
07:17AM 38.1878 -75.6578 217° Southwest 463 533 43,000  Level Washington Center
07:18AM 38.0814 -75.7581 217° Southwest 474 545 43,000  Level Washington Center
07:19AM 37.9789 -75.8525 216° Southwest 474 545 43,000  Level Washington Center
07:20AM 37.8744 -75.9522 217° Southwest 474 545 43,000  Level Washington Center
07:21AM 37.7697 -76.0567 218° Southwest 480 552 43,000  Level Washington Center
07:22AM 37.6650 -76.1533 216° Southwest 480 552 43,000  Level Washington Center
07:23AM 37.5542 -76.2467 214° Southwest 480 552 43,000  Level Washington Center
07:24AM 37.4472 -76.3478 217° Southwest 480 552 43,000  Level Washington Center
07:25AM 37.3381 -76.4461 216° Southwest 480 552 43,000  Level Washington Center
07:26AM 37.2289 -76.5386 214° Southwest 480 552 43,000  Level Washington Center
07:27AM 37.1094 -76.6075 205° Southwest 480 552 43,000  Level Washington Center
07:28AM 36.9856 -76.6761 204° Southwest 480 552 43,000  Level Washington Center
07:29AM 36.8642 -76.7444 204° Southwest 480 552 43,000  Level Washington Center
07:30AM 36.7444 -76.8128 205° Southwest 480 552 43,000  Level Washington Center
07:31AM 36.6228 -76.8808 204° Southwest 480 552 43,000  Level Washington Center
07:32AM 36.5031 -76.9458 204° Southwest 480 552 43,000  Level Washington Center
07:33AM 36.3814 -77.0136 204° Southwest 480 552 43,000  Level Washington Center
07:34AM 36.2617 -77.0808 204° Southwest 480 552 43,000  Level Washington Center
07:35AM 36.1461 -77.1431 204° Southwest 475 547 43,000  Level Washington Center
07:36AM 36.0219 -77.2075 203° Southwest 470 541 43,000  Level Washington Center
07:37AM 35.9022 -77.2742 204° Southwest 470 541 43,000  Level Washington Center
07:38AM 35.7803 -77.3406 204° Southwest 475 547 43,000  Level Washington Center
07:39AM 35.6603 -77.4044 203° Southwest 475 547 43,000  Level Washington Center
07:40AM 35.5361 -77.4706 203° Southwest 480 552 43,000  Level Washington Center
07:41AM 35.4142 -77.5367 204° Southwest 480 552 43,000  Level Washington Center
07:42AM 35.3022 -77.6256 213° Southwest 480 552 43,000  Level Washington Center
07:43AM 35.2044 -77.7297 221° Southwest 474 545 43,000  Level Washington Center
07:44AM 35.1022 -77.8336 220° Southwest 479 551 43,000  Level Washington Center
07:45AM 35.0022 -77.9375 220° Southwest 479 551 43,000  Level Washington Center
07:46AM 34.9019 -78.0408 220° Southwest 479 551 43,000  Level Washington Center
07:47AM 34.8189 -78.1269 220° Southwest 479 551 43,000  Level Washington Center
07:49AM 34.6017 -78.3550 221° Southwest 481 554 43,000  Level Jacksonville Center
07:50AM 34.4989 -78.4536 218° Southwest 475 547 43,000  Level Jacksonville Center
07:51AM 34.4003 -78.5594 222° Southwest 475 547 43,000  Level Jacksonville Center
07:52AM 34.2994 -78.6597 219° Southwest 475 547 43,000  Level Jacksonville Center
07:53AM 34.1964 -78.7603 219° Southwest 480 552 43,000  Level Jacksonville Center
07:54AM 34.0756 -78.8311 206° Southwest 480 552 43,000  Level Jacksonville Center
07:55AM 33.9503 -78.8894 201° Southwest 480 552 43,000  Level Jacksonville Center
07:56AM 33.8250 -78.9553 204° Southwest 490 564 43,000  Level Jacksonville Center
07:57AM 33.6975 -79.0158 202° Southwest 490 564 43,000  Level Jacksonville Center
07:58AM 33.5722 -79.0786 203° Southwest 495 570 43,000  Level Jacksonville Center
07:59AM 33.4508 -79.1361 202° Southwest 487 560 43,000  Level Jacksonville Center
08:00AM 33.3233 -79.1986 202° Southwest 482 555 43,000  Level Jacksonville Center
08:01AM 33.1978 -79.2636 203° Southwest 494 568 43,000  Level Jacksonville Center
08:02AM 33.0681 -79.3233 201° Southwest 494 568 43,000  Level Jacksonville Center
08:03AM 32.9425 -79.3878 203° Southwest 494 568 43,000  Level Jacksonville Center
08:04AM 32.8147 -79.4494 202° Southwest 494 568 43,000  Level Jacksonville Center
08:05AM 32.6892 -79.5111 202° Southwest 494 568 43,000  Level Jacksonville Center
08:06AM 32.5636 -79.5750 203° Southwest 494 568 43,000  Level Jacksonville Center
08:07AM 32.4378 -79.6361 202° Southwest 494 568 43,000  Level Jacksonville Center
08:08AM 32.3100 -79.6997 203° Southwest 494 568 43,000  Level Jacksonville Center
08:09AM 32.1861 -79.7581 202° Southwest 494 568 43,000  Level Jacksonville Center
08:10AM 32.0564 -79.8236 203° Southwest 494 568 43,000 -240 Level Jacksonville Center
08:11AM 31.9283 -79.8842 202° Southwest 494 568 42,600 -960 Descending Jacksonville Center
08:12AM 31.8025 -79.9444 202° Southwest 494 568 41,100 -1,500 Descending Jacksonville Center
08:13AM 31.6744 -80.0047 202° Southwest 489 563 39,600 -1,500 Descending Jacksonville Center
08:14AM 31.5444 -80.0722 204° Southwest 501 577 38,100 -840 Descending Jacksonville Center
08:15AM 31.4078 -80.1347 201° Southwest 518 596 38,000 -60 Descending Jacksonville Center
08:16AM 31.2694 -80.2019 203° Southwest 536 617 38,000  Level Jacksonville Center
08:17AM 31.1289 -80.2642 201° Southwest 536 617 38,000  Level Jacksonville Center
08:18AM 30.9944 -80.3311 203° Southwest 531 611 38,000 -420 Level Jacksonville Center
08:19AM 30.8539 -80.3978 202° Southwest 536 617 37,200 -1,620 Descending Jacksonville Center
08:20AM 30.7236 -80.4592 202° Southwest 531 611 34,800 -2,400 Descending Jacksonville Center
08:21AM 30.5931 -80.5181 201° Southwest 518 596 32,500 -2,280 Descending Jacksonville Center
08:22AM 30.4731 -80.5739 202° Southwest 493 567 30,300 -2,220 Descending Jacksonville Center
08:23AM 30.3592 -80.6272 202° Southwest 469 540 28,100 -2,220 Descending Jacksonville Center
08:24AM 30.2536 -80.6778 202° Southwest 435 501 25,900 -2,100 Descending Jacksonville Center
08:25AM 30.1500 -80.7258 202° Southwest 419 482 24,000 -960 Descending Jacksonville Center
08:26AM 30.0444 -80.7739 202° Southwest 414 476 24,000  Level Jacksonville Center
08:27AM 29.9367 -80.8217 201° Southwest 414 476 24,000 -720 Level Jacksonville Center
08:28AM 29.8161 -80.8578 195° South 414 476 22,600 -1,500 Descending Jacksonville Center
08:29AM 29.7017 -80.8936 195° South 414 476 21,100 -1,500 Descending Jacksonville Center
08:30AM 29.5936 -80.9222 193° South 413 475 19,700 -1,500 Descending Jacksonville Center
08:31AM 29.4836 -80.9578 196° South 413 475 18,200 -1,440 Descending Jacksonville Center
08:32AM 29.3817 -80.9836 192° South 401 461 16,900 -1,320 Descending Jacksonville Center
08:33AM 29.2819 -81.0117 194° South 391 450 15,600 -1,320 Descending Jacksonville Center
08:34AM 29.1842 -81.0422 195° South 379 436 14,300 -1,320 Descending Jacksonville Center
08:35AM 29.0886 -81.0700 194° South 368 423 13,000 -1,020 Descending Jacksonville Center
08:36AM 28.9867 -81.0956 192° South 368 423 12,300 -900 Descending Jacksonville Center
08:37AM 28.8761 -81.1025 183° South 393 452 11,300 -1,200 Descending Jacksonville Center
08:37AM 28.8333 -81.0833 159° South 445 512 10,700 -1,020 Descending Orlando TRACON
08:39AM 28.7167 -81.0000 148° Southeast 324 373 9,700 -780 Descending Orlando TRACON
08:40AM 28.6500 -81.0167 192° South 271 312 9,000 -420 Descending Orlando TRACON
08:41AM 28.6167 -81.0833 240° Southwest 246 283 9,000  Level Orlando TRACON
08:42AM 28.5667 -81.1500 230° Southwest 247 284 9,000  Level Orlando TRACON
08:43AM 28.5333 -81.2000 233° Southwest 252 290 9,000  Level Orlando TRACON
08:44AM 28.5167 -81.2833 257° West 244 281 9,000 -60 Level Orlando TRACON
08:45AM 28.4833 -81.3500 240° Southwest 240 276 8,900 -900 Descending Orlando TRACON
08:46AM 28.4667 -81.4333 257° West 237 273 7,200 -1,500 Descending Orlando TRACON
08:47AM 28.4167 -81.4333 180° South 248 285 6,100 -1,680 Descending Orlando TRACON
08:48AM 28.3333 -81.4167 170° South 244 281 4,000 -1,500 Descending Orlando TRACON
08:49AM 28.2833 -81.3833 150° Southeast 204 235 3,000 -600 Descending Orlando TRACON
08:50AM 28.3000 -81.3333 69° East 199 229 2,900 -840 Descending Orlando TRACON
08:51AM 28.3500 -81.3333 360° North 178 205 1,400 -1,200 Descending Orlando TRACON
08:52AM 28.4000 -81.3333 360° North 119 137 500 -840 Descending Orlando TRACON
08:54AM 28.4294 -81.3090 221° Southwest  Level Estimated
09:01AM 28.4294 -81.3090 221° Southwest  Level Estimated
09:02AM 28.4294 -81.3090 221° Southwest  Level Estimated
09:03AM 28.4294 -81.3090 221° Southwest  Level Estimated